Latest Coastal Weather Observations for Avalon

IDV60701

Issued at 10:11 pm EDT Wednesday 7 December 2022 (issued every 10 minutes, with the page automatically refreshed every 10 minutes)

About coastal observations | Map of coastal stations | Coastal observations for VIC | Marine services | Other Formats
Station Details ID: 087113 Name: AVALON AIRPORT Lat: -38.03 Lon: 144.48 Height: 10.6 m
Data from the previous 72 hours. | See also: Recent months at Avalon
Date/Time
EDT
Wind Sea
Height
m
Swell Vis
km
Cloud Weather Temp
°C
Press
MSL
hPa
Rain since
9am
mm
Dir  Spd
kts
Gust
kts
Height
m
Period
s
Dir
07/10:00pm WSW 12 17 - - - - 10 Clear - 11.1 1009.7 0.2
07/09:30pm WSW 19 22 - - - - 10 Partly cloudy - 12.0 1009.0 0.2
07/09:00pm WSW 14 20 - - - - 10 Cloudy - 12.3 1008.3 0.2
07/08:30pm WSW 15 22 - - - - 10 Cloudy - 12.7 1007.8 0.2
07/08:00pm WSW 15 20 - - - - 10 Partly cloudy - 12.9 1007.3 0.2
07/07:30pm W 14 22 - - - - 10 Partly cloudy - 12.9 1006.6 0.2
07/07:11pm WSW 14 20 - - - - 10 Partly cloudy - 12.8 1006.2 0.2
07/07:00pm WSW 19 29 - - - - 6 Partly cloudy - 12.5 1006.1 0.2
07/06:56pm WSW 19 29 - - - - 5 Partly cloudy - 12.6 1006.1 0.2
07/06:53pm WSW 20 29 - - - - 6 Partly cloudy - 12.8 1006.0 0.0
07/06:47pm WSW 19 29 - - - - 10 Partly cloudy - 13.8 1005.7 0.0
07/06:30pm WSW 20 26 - - - - 10 Partly cloudy - 16.9 1004.9 0.0
07/06:08pm WSW 20 31 - - - - 10 Partly cloudy - 17.7 1004.5 0.0
07/06:00pm WSW 19 26 - - - - 10 Partly cloudy - 18.0 1004.4 0.0
07/05:30pm W 20 29 - - - - 10 Partly cloudy - 19.0 1004.3 0.0
07/05:20pm W 19 30 - - - - 10 Partly cloudy - 19.5 1004.1 0.0
07/05:00pm WSW 20 25 - - - - 10 Partly cloudy - 19.4 1004.3 0.0
07/04:34pm WSW 19 29 - - - - 10 Partly cloudy - 20.1 1004.3 0.0
07/04:30pm WSW 19 26 - - - - 10 Partly cloudy - 19.8 1004.3 0.0
07/04:00pm WSW 21 28 - - - - 10 Partly cloudy - 19.7 1004.3 0.0
07/03:52pm WSW 19 27 - - - - 10 Partly cloudy - 20.7 1004.2 0.0
07/03:40pm SSW 12 24 - - - - 10 Partly cloudy - 19.7 1004.4 0.0
07/03:30pm S 11 14 - - - - 10 Partly cloudy - 17.5 1004.5 0.0
07/03:00pm SSE 13 18 - - - - 10 Cloudy - 17.6 1004.7 0.0
07/02:30pm S 14 20 - - - - 10 Partly cloudy - 17.4 1004.7 0.0
07/02:00pm S 13 18 - - - - 10 Partly cloudy - 17.6 1004.6 0.0
07/01:30pm S 14 20 - - - - 10 Partly cloudy - 18.4 1004.6 0.0
07/01:12pm S 13 21 - - - - 10 Partly cloudy - 16.7 1004.7 0.0
07/01:00pm S 8 11 - - - - 10 Partly cloudy - 18.0 1004.5 0.0
07/12:30pm SSE 10 15 - - - - 10 Partly cloudy - 19.1 1004.4 0.0
07/12:00pm S 14 17 - - - - 10 Cloudy - 18.2 1004.8 0.0
07/11:30am SSW 9 12 - - - - 10 Cloudy - 17.2 1004.7 0.0
07/11:00am SSW 10 17 - - - - 10 Partly cloudy - 17.7 1004.7 0.0
07/10:30am SSW 8 13 - - - - 10 Cloudy - 18.3 1004.5 0.0
07/10:00am SSW 6 11 - - - - 10 Cloudy - 17.4 1004.4 0.0
07/09:30am SSW 8 11 - - - - 10 Partly cloudy - 17.2 1004.5 0.0
07/09:00am SSW 8 9 - - - - 10 Cloudy - 16.1 1004.6 0.2
07/08:30am SW 7 9 - - - - 10 Cloudy - 15.4 1004.6 0.2
07/08:00am SW 7 8 - - - - 10 Cloudy - 14.5 1004.3 0.2
07/07:30am WSW 3 5 - - - - 10 Partly cloudy - 13.5 1004.0 0.2
07/07:00am WSW 4 5 - - - - 10 - - 11.9 1004.0 0.2
07/06:30am WSW 4 5 - - - - 10 - - 10.6 1003.8 0.2
07/06:00am W 4 4 - - - - 10 Mostly clear - 9.8 1003.9 0.2
07/05:30am WNW 5 5 - - - - 10 - - 10.1 1003.8 0.2
07/05:00am WNW 3 4 - - - - 10 - - 10.7 1003.8 0.2
07/04:30am NW 3 5 - - - - 10 Partly cloudy - 10.9 1004.0 0.2
07/04:00am WNW 4 5 - - - - 10 Cloudy - 11.6 1004.1 0.2
07/03:30am NW 4 5 - - - - 10 Cloudy - 11.3 1004.5 0.2
07/03:00am NW 4 5 - - - - 10 Partly cloudy - 11.2 1004.7 0.2
07/02:30am NW 4 5 - - - - 10 - - 12.0 1005.0 0.2
07/02:00am WNW 4 4 - - - - 10 - - 12.1 1005.6 0.2
07/01:30am CALM 0 0 - - - - 10 - - 12.2 1006.0 0.2
07/01:00am CALM 0 0 - - - - 10 - - 12.0 1006.1 0.2
07/12:30am CALM 0 0 - - - - 10 - - 12.2 1006.4 0.2
07/12:00am SE 2 4 - - - - 10 Cloudy - 11.8 1006.8 0.2
 
Date/Time
EDT
Wind Sea
Height
m
Swell Vis
km
Cloud Weather Temp
°C
Press
MSL
hPa
Rain since
9am
mm
Dir  Spd
kts
Gust
kts
Height
m
Period
s
Dir
06/11:30pm SE 4 5 - - - - 10 - - 11.5 1007.2 0.2
06/11:00pm SSE 6 8 - - - - 10 - - 11.3 1007.3 0.2
06/10:30pm S 7 9 - - - - 10 - - 11.6 1007.7 0.2
06/10:00pm SSE 6 7 - - - - 10 - - 11.7 1007.9 0.2
06/09:30pm S 7 8 - - - - 10 - - 12.2 1008.0 0.2
06/09:00pm S 7 9 - - - - 10 Mostly clear - 13.2 1007.9 0.2
06/08:30pm SSE 8 10 - - - - 10 - - 14.4 1007.6 0.2
06/08:00pm SSE 7 9 - - - - 10 - - 15.3 1007.7 0.2
06/07:30pm SSE 8 10 - - - - 10 - - 16.8 1007.7 0.2
06/07:00pm SSE 10 15 - - - - 10 - - 17.6 1007.6 0.2
06/06:30pm SE 10 13 - - - - 10 - - 18.1 1007.7 0.2
06/06:00pm SE 11 14 - - - - 10 - - 18.6 1007.6 0.2
06/05:30pm SSE 11 16 - - - - 10 - - 19.4 1007.9 0.2
06/05:00pm SE 9 15 - - - - 10 - - 19.4 1008.1 0.2
06/04:30pm SE 8 11 - - - - 10 Partly cloudy - 20.1 1008.7 0.2
06/04:00pm SE 9 12 - - - - 10 - - 18.7 1009.0 0.2
06/03:30pm SE 9 13 - - - - 10 Partly cloudy - 19.8 1009.1 0.2
06/03:00pm ESE 10 14 - - - - 10 - - 19.4 1009.3 0.2
06/02:30pm ESE 9 14 - - - - 10 - - 19.6 1009.6 0.2
06/02:00pm ESE 10 13 - - - - 10 - - 20.4 1009.8 0.2
06/01:30pm ESE 8 12 - - - - 10 - - 19.7 1010.3 0.2
06/01:00pm SE 8 12 - - - - 10 Partly cloudy - 19.3 1010.8 0.2
06/12:30pm E 9 13 - - - - 10 Partly cloudy - 18.8 1011.0 0.2
06/12:00pm E 7 10 - - - - 10 Cloudy Rain 17.9 1011.5 0.2
06/11:30am ESE 9 12 - - - - 10 Partly cloudy - 17.6 1011.5 0.0
06/11:00am ESE 9 13 - - - - 10 Partly cloudy - 17.5 1011.5 0.0
06/10:30am E 8 12 - - - - 10 Partly cloudy - 16.2 1011.8 0.0
06/10:00am E 8 11 - - - - 10 Partly cloudy - 15.2 1012.0 0.0
06/09:35am E 10 12 - - - - 10 Partly cloudy - 13.8 1012.2 0.0
06/09:30am E 10 13 - - - - 10 Partly cloudy - 13.4 1012.3 0.0
06/09:12am E 12 15 - - - - 10 Partly cloudy - 13.5 1012.5 0.0
06/09:11am E 12 15 - - - - 10 Partly cloudy - 13.6 1012.5 0.0
06/09:00am E 13 16 - - - - 5 Cloudy Rain 13.6 1012.4 0.4
06/08:57am E 12 16 - - - - 4 Partly cloudy - 13.5 1012.4 0.4
06/08:53am E 13 18 - - - - 6 Partly cloudy - 13.6 1012.3 0.4
06/08:45am SE 12 19 - - - - 10 Partly cloudy - 14.3 1012.1 0.0
06/08:30am S 11 14 - - - - 10 Partly cloudy - 15.3 1012.1 0.0
06/08:00am SW 7 10 - - - - 10 Partly cloudy - 14.4 1012.1 0.0
06/07:53am SW 7 9 - - - - 10 Partly cloudy - 13.9 1012.1 0.0
06/07:30am WSW 8 9 - - - - 10 Partly cloudy - 12.7 1011.9 0.0
06/07:23am WSW 8 9 - - - - 10 Partly cloudy - 12.6 1011.8 0.0
06/07:00am WSW 8 10 - - - - 10 Partly cloudy - 12.5 1011.6 0.0
06/06:30am WSW 7 9 - - - - 10 Partly cloudy - 12.1 1011.7 0.0
06/06:19am W 7 9 - - - - 10 Partly cloudy - 11.8 1011.7 0.0
06/06:00am W 7 9 - - - - 10 Cloudy - 11.9 1011.6 0.0
06/05:48am WSW 8 10 - - - - 10 Partly cloudy - 12.0 1011.5 0.0
06/05:30am WSW 9 12 - - - - 10 Partly cloudy - 12.3 1011.5 0.0
06/05:00am WSW 11 15 - - - - 10 Partly cloudy - 12.8 1011.5 0.0
06/04:30am WSW 12 15 - - - - 10 Partly cloudy - 13.1 1011.5 0.0
06/04:00am WSW 9 12 - - - - 10 Cloudy - 13.0 1011.7 0.0
06/03:30am SW 12 16 - - - - 10 Cloudy - 13.5 1011.7 0.0
06/03:00am SW 13 16 - - - - 10 Mostly cloudy - 13.5 1011.8 0.0
06/02:30am SW 14 19 - - - - 10 Partly cloudy - 13.3 1011.9 0.0
06/02:00am SW 14 19 - - - - 10 Partly cloudy - 13.2 1012.1 0.0
06/01:30am SW 14 17 - - - - 10 Cloudy - 13.1 1012.4 0.0
06/01:00am SW 14 18 - - - - 10 Cloudy - 12.9 1012.7 0.0
06/12:59am SW 14 18 - - - - 10 Cloudy - 12.9 1012.7 0.0
06/12:30am SW 16 20 - - - - 10 Cloudy - 12.9 1013.2 0.0
06/12:00am SSW 16 21 - - - - 10 Mostly cloudy - 13.1 1013.4 0.0
 
Date/Time
EDT
Wind Sea
Height
m
Swell Vis
km
Cloud Weather Temp
°C
Press
MSL
hPa
Rain since
9am
mm
Dir  Spd
kts
Gust
kts
Height
m
Period
s
Dir
05/11:30pm SW 15 20 - - - - 10 Cloudy - 13.3 1013.7 0.0
05/11:00pm SW 19 24 - - - - 10 Cloudy - 13.4 1013.6 0.0
05/10:30pm SW 17 22 - - - - 10 Cloudy - 13.6 1014.1 0.0
05/10:00pm SW 17 23 - - - - 10 Cloudy - 13.7 1014.0 0.0
05/09:30pm SW 18 23 - - - - 10 Partly cloudy - 13.8 1013.9 0.0
05/09:00pm SW 19 27 - - - - 10 Cloudy - 13.8 1013.8 0.0
05/08:30pm SW 21 26 - - - - 10 Partly cloudy - 14.1 1013.5 0.0
05/08:00pm SSW 20 28 - - - - 10 Partly cloudy - 14.4 1013.2 0.0
05/07:30pm SW 20 26 - - - - 10 Partly cloudy - 14.6 1013.2 0.0
05/07:00pm SW 21 25 - - - - 10 Cloudy - 14.8 1013.0 0.0
05/06:30pm SW 21 27 - - - - 10 Partly cloudy - 15.2 1012.6 0.0
05/06:00pm SW 21 27 - - - - 10 Partly cloudy - 15.4 1012.4 0.0
05/05:30pm SW 24 30 - - - - 10 Partly cloudy - 15.3 1012.3 0.0
05/05:00pm SSW 23 30 - - - - 10 Partly cloudy - 14.6 1012.3 0.0
05/04:36pm SSW 23 33 - - - - 10 Partly cloudy - 15.1 1012.3 0.0
05/04:30pm SSW 23 28 - - - - 10 Partly cloudy - 16.6 1012.1 0.0
05/04:00pm SW 23 30 - - - - 10 Partly cloudy - 17.9 1012.0 0.0
05/03:30pm SW 25 31 - - - - 10 Partly cloudy - 17.8 1012.1 0.0
05/03:00pm SW 23 30 - - - - 10 Cloudy - 18.2 1011.9 0.0
05/02:30pm SW 21 27 - - - - 10 Partly cloudy - 18.0 1012.0 0.0
05/02:00pm SSW 20 26 - - - - 10 Partly cloudy - 16.5 1012.2 0.0
05/01:30pm SSW 22 30 - - - - 10 Partly cloudy - 17.1 1012.1 0.0
05/01:00pm SSW 19 24 - - - - 10 Partly cloudy - 17.4 1011.9 0.0
05/12:30pm SSW 21 27 - - - - 10 Partly cloudy - 17.8 1011.7 0.0
05/12:06pm SSW 20 31 - - - - 10 Partly cloudy - 16.8 1011.6 0.0
05/12:00pm SSW 20 26 - - - - 10 Cloudy - 17.0 1011.5 0.0
05/11:30am SSW 23 30 - - - - 10 Partly cloudy - 16.5 1011.3 0.0
05/11:06am SSW 20 30 - - - - 10 Partly cloudy - 17.1 1011.1 0.0
05/11:00am SSW 20 28 - - - - 10 Partly cloudy - 18.3 1011.0 0.0
05/10:30am SSW 21 30 - - - - 10 Partly cloudy - 16.9 1010.8 0.0
05/10:00am SSW 21 27 - - - - 10 Partly cloudy - 15.4 1010.7 0.0
05/09:30am SSW 20 26 - - - - 10 Partly cloudy - 17.1 1010.5 0.0
05/09:00am SW 16 23 - - - - 10 Cloudy - 15.3 1010.4 0.0
05/08:30am SW 17 21 - - - - 10 Partly cloudy - 15.1 1010.1 0.0
05/08:08am SW 20 27 - - - - 10 Partly cloudy - 15.4 1009.8 0.0
05/08:00am SSW 21 27 - - - - 10 Partly cloudy - 15.3 1009.6 0.0
05/07:42am SW 19 26 - - - - 10 Partly cloudy - 15.2 1009.5 0.0
05/07:30am SSW 19 27 - - - - 10 Partly cloudy - 15.2 1009.1 0.0
05/07:00am SW 17 23 - - - - 10 Partly cloudy - 15.4 1008.9 0.0
05/06:57am SW 16 23 - - - - 10 Partly cloudy - 15.5 1008.9 0.0
05/06:30am SW 11 15 - - - - 10 Partly cloudy - 16.1 1008.5 0.0
05/06:00am W 11 16 - - - - 10 Mostly clear - 15.6 1007.9 0.0
05/05:30am W 12 17 - - - - 10 Partly cloudy - 15.8 1007.6 0.0
05/05:00am WSW 15 20 - - - - 10 Cloudy - 16.6 1007.1 0.0
05/04:30am W 11 17 - - - - 10 Partly cloudy - 16.4 1007.1 0.0
05/04:00am W 13 18 - - - - 10 Partly cloudy - 16.5 1006.9 0.0
05/03:30am WSW 14 20 - - - - 10 Cloudy - 17.1 1006.5 0.0
05/03:00am W 11 16 - - - - 10 Cloudy Recent precip. 17.2 1006.4 0.0
05/02:30am W 13 19 - - - - 10 Partly cloudy - 17.0 1006.2 0.0
05/02:00am WSW 14 22 - - - - 10 Partly cloudy - 17.2 1006.3 0.0
05/01:30am W 14 19 - - - - 10 - - 17.6 1006.2 0.0
05/01:00am W 15 24 - - - - 10 - - 18.1 1006.5 0.0
05/12:30am WSW 18 25 - - - - 10 - - 19.6 1006.0 0.0
05/12:00am WSW 13 16 - - - - 10 Cloudy - 21.3 1005.8 0.0
 
Date/Time
EDT
Wind Sea
Height
m
Swell Vis
km
Cloud Weather Temp
°C
Press
MSL
hPa
Rain since
9am
mm
Dir  Spd
kts
Gust
kts
Height
m
Period
s
Dir
04/11:30pm SW 9 11 - - - - 10 - - 21.2 1006.4 0.0
04/11:00pm SSW 13 18 - - - - 10 - - 21.2 1005.2 0.0
04/10:30pm CALM 0 0 - - - - 10 - - 22.2 1004.4 0.0

Other formats

Comma delimited format used in spreadsheet applications
http://www.bom.gov.au/fwo/IDV60701/IDV60701.94854.axf

JavaScript Object Notation format (JSON) in row-major order
http://www.bom.gov.au/fwo/IDV60701/IDV60701.94854.json

Data quality

Most of these data are generated automatically and are frequently updated. Quality checks on data are not normally performed. It is possible for incorrect values to appear. Refer to information at About Latest Weather Observations and please check the disclaimer before using these data.